createdAt,value
2023-04-15T00:04:28.293Z,8.78
2023-04-15T00:12:52.575Z,8.68
2023-04-15T00:21:15.454Z,8.64
2023-04-15T00:29:38.318Z,8.57
2023-04-15T00:38:01.548Z,8.50
2023-04-15T00:46:27.105Z,8.40
2023-04-15T00:54:51.342Z,8.31
2023-04-15T01:03:15.662Z,8.29
2023-04-15T01:11:40.019Z,8.26
2023-04-15T01:20:05.471Z,8.21
2023-04-15T01:28:28.560Z,8.18
2023-04-15T01:36:51.932Z,8.12
2023-04-15T01:45:18.348Z,8.03
2023-04-15T01:53:41.545Z,7.95
2023-04-15T02:02:05.499Z,7.91
2023-04-15T02:10:28.535Z,7.92
2023-04-15T02:18:52.261Z,7.89
2023-04-15T02:27:18.746Z,7.88
2023-04-15T02:35:44.270Z,7.88
2023-04-15T02:44:11.364Z,7.88
2023-04-15T02:52:35.089Z,7.89
2023-04-15T03:00:58.158Z,7.88
2023-04-15T03:09:21.651Z,7.88
2023-04-15T03:17:44.676Z,7.90
2023-04-15T03:26:07.786Z,7.91
2023-04-15T03:34:30.769Z,7.93
2023-04-15T03:42:54.900Z,7.95
2023-04-15T03:51:17.837Z,7.98
2023-04-15T03:59:41.195Z,8.00
2023-04-15T04:08:04.122Z,8.02
2023-04-15T04:16:27.071Z,8.04
2023-04-15T04:24:50.801Z,8.08
2023-04-15T04:33:13.693Z,8.11
2023-04-15T04:41:36.567Z,8.13
2023-04-15T04:49:59.441Z,8.14
2023-04-15T04:58:22.434Z,8.13
2023-04-15T05:06:45.336Z,8.14
2023-04-15T05:15:09.161Z,8.15
2023-04-15T05:23:32.275Z,8.18
2023-04-15T05:31:55.972Z,8.19
2023-04-15T05:40:19.532Z,8.23
2023-04-15T05:48:42.469Z,8.26
2023-04-15T05:57:05.385Z,8.28
2023-04-15T06:05:28.306Z,8.29
2023-04-15T06:13:51.196Z,8.30
2023-04-15T06:22:14.076Z,8.33
2023-04-15T06:30:37.002Z,8.34
2023-04-15T06:38:59.985Z,8.35
2023-04-15T06:47:23.289Z,8.38
2023-04-15T06:55:46.449Z,8.42
2023-04-15T07:04:09.702Z,8.42
2023-04-15T07:12:32.738Z,8.44
2023-04-15T07:20:56.189Z,8.50
2023-04-15T07:29:19.040Z,8.55
2023-04-15T07:37:43.390Z,8.60
2023-04-15T07:46:07.008Z,8.66
2023-04-15T07:54:29.890Z,8.72
2023-04-15T08:02:54.155Z,8.74
2023-04-15T08:11:17.139Z,8.74
2023-04-15T08:19:40.833Z,8.80
2023-04-15T08:28:07.404Z,8.91
2023-04-15T08:36:32.729Z,8.94
2023-04-15T08:44:56.390Z,8.99
2023-04-15T08:53:19.347Z,9.04
2023-04-15T09:01:42.321Z,9.09
2023-04-15T09:10:06.750Z,9.24
2023-04-15T09:18:34.994Z,9.32
2023-04-15T09:26:58.677Z,9.47
2023-04-15T09:35:23.708Z,9.71
2023-04-15T09:43:46.545Z,9.81
2023-04-15T09:52:09.372Z,9.86
2023-04-15T10:00:33.513Z,9.81
2023-04-15T10:08:58.904Z,9.77
2023-04-15T10:17:23.895Z,9.78
2023-04-15T10:25:47.265Z,9.78
2023-04-15T10:34:11.343Z,9.81
2023-04-15T10:42:38.170Z,9.88
2023-04-15T10:51:05.315Z,10.07
2023-04-15T10:59:32.034Z,10.21
2023-04-15T11:07:56.279Z,10.27
2023-04-15T11:16:19.203Z,10.50
2023-04-15T11:24:52.118Z,10.63
2023-04-15T11:33:15.080Z,10.74
2023-04-15T11:41:37.988Z,10.97
2023-04-15T11:50:23.762Z,11.22
2023-04-15T11:58:47.488Z,11.44
2023-04-15T12:07:10.865Z,11.54
2023-04-15T12:15:33.909Z,11.53
2023-04-15T12:23:58.308Z,11.58
2023-04-15T12:32:21.623Z,11.71
2023-04-15T12:40:47.412Z,11.89
2023-04-15T12:49:10.335Z,11.88
2023-04-15T12:57:33.269Z,11.90
2023-04-15T13:05:57.868Z,11.94
2023-04-15T13:14:20.972Z,11.92
2023-04-15T13:22:43.779Z,11.80
2023-04-15T13:31:06.632Z,11.90
2023-04-15T13:39:29.481Z,12.22
2023-04-15T13:47:52.992Z,12.25
2023-04-15T13:56:16.145Z,12.08
2023-04-15T14:04:39.244Z,11.98
2023-04-15T14:13:02.062Z,11.92
2023-04-15T14:21:26.324Z,11.96
2023-04-15T14:29:49.236Z,11.81
2023-04-15T14:38:12.313Z,11.74
2023-04-15T14:46:35.993Z,11.95
2023-04-15T14:54:59.096Z,11.81
2023-04-15T15:03:22.139Z,11.43
2023-04-15T15:11:45.511Z,11.49
2023-04-15T15:20:08.884Z,11.66
2023-04-15T15:28:31.817Z,11.74
2023-04-15T15:36:56.055Z,11.80
2023-04-15T15:45:18.996Z,11.85
2023-04-15T15:53:41.905Z,11.77
2023-04-15T16:02:06.059Z,11.62
2023-04-15T16:10:29.201Z,11.51
2023-04-15T16:18:52.112Z,11.30
2023-04-15T16:27:16.417Z,11.05
2023-04-15T16:35:39.356Z,10.77
2023-04-15T16:44:03.286Z,10.50
2023-04-15T16:52:26.348Z,10.29
2023-04-15T17:00:50.889Z,10.08
2023-04-15T17:09:13.763Z,9.81
2023-04-15T17:17:36.867Z,9.56
2023-04-15T17:25:59.854Z,9.38
2023-04-15T17:34:22.789Z,9.27
2023-04-15T17:42:45.684Z,9.17
2023-04-15T17:51:08.791Z,9.09
2023-04-15T17:59:33.791Z,9.02
2023-04-15T18:07:57.110Z,8.88
2023-04-15T18:16:20.125Z,8.76
2023-04-15T18:24:43.560Z,8.62
2023-04-15T18:33:06.529Z,8.50
2023-04-15T18:41:29.805Z,8.33
2023-04-15T18:49:52.698Z,8.21
2023-04-15T18:58:15.969Z,8.16
2023-04-15T19:06:39.153Z,8.15
2023-04-15T19:15:02.861Z,8.13
2023-04-15T19:23:26.224Z,8.13
2023-04-15T19:31:49.361Z,8.08
2023-04-15T19:40:12.848Z,8.03
2023-04-15T19:48:36.928Z,8.03
2023-04-15T19:57:00.023Z,8.04
2023-04-15T20:05:23.529Z,8.01
2023-04-15T20:13:46.449Z,8.02
2023-04-15T20:22:09.378Z,8.01
2023-04-15T20:30:32.381Z,7.95
2023-04-15T20:38:55.214Z,7.94
2023-04-15T20:47:18.465Z,7.93
2023-04-15T20:55:43.548Z,7.88
2023-04-15T21:04:06.420Z,7.85
2023-04-15T21:12:29.385Z,7.87
2023-04-15T21:20:59.379Z,7.86
2023-04-15T21:29:22.294Z,7.83
2023-04-15T21:37:45.252Z,7.79
2023-04-15T21:46:22.477Z,7.71
2023-04-15T21:54:47.956Z,7.68
2023-04-15T22:03:11.234Z,7.63
2023-04-15T22:11:34.392Z,7.60
2023-04-15T22:19:57.238Z,7.59
2023-04-15T22:28:20.344Z,7.54
2023-04-15T22:36:43.264Z,7.51
2023-04-15T22:45:07.128Z,7.49
2023-04-15T22:53:30.024Z,7.49
2023-04-15T23:01:53.731Z,7.45
2023-04-15T23:10:16.750Z,7.43
2023-04-15T23:18:39.653Z,7.42
2023-04-15T23:27:02.541Z,7.38
2023-04-15T23:35:26.457Z,7.33
2023-04-15T23:43:49.908Z,7.33
2023-04-15T23:52:12.754Z,7.33
